Timeline UpdatesTrip UpdatesNews PostsPvt PostsTravel TipsAdmin PostsConv PostsFollowed PostsChat RequestsBlog PostsPNR Posts

Disclaimer
Search
 
 
Wed Sep 3, 2014 12:33:39 ISTHomeTrainsΣChainsAtlasPNRForumGalleryNewsFAQTripsMembersLoginFeedback
No Recent News for this Train
Other Trains in the News **new
Latest...
..
Wed Jul 23, 2014 (08:03AM)
⇐ Return Journey: Train# 12640

12639/Brindavan Express

Time-Table HAS CHANGED. update tt
Sep 01 (11:41PM)
Change Departure Station:
Change Arrival Station:
Post a Train Travel TipPost a Train Travel Tip **new
Post a Comment/Question/Picture/VideoPost a Comment/Question/Picture/Video
Inaugural Run
Thu Oct 01, 1964
Pantry/Catering
✕ NO Pantry Car
✕ NO Catering
RSA - Rake Sharing
No RSA
Rake/Coach Composition
LOCO-SLR-UR-UR-UR-UR-UR-UR-UR-UR-UR-UR-D6-D5-D4-D3-D2-D1-UR-UR-UR-UR-UR-SLRD
Loco
Lallaguda/RPM WAP-7
News    PNR    Forum    Time-Table    Availability    Fare Chart    Map    Arr/Dep History    Trips    Gallery    ΣChains    X/O    Timeline    
Travel Time: 6h 10m    10 halts    Distance: 358 km    Avg Speed: 58 km/hr
Type: SuperFast
Zone: SR/Southern
Departs @ 07:50
Platform# 3
SMTWTFS
Chennai Central/MAS 
Arrives @ 14:00
Platform# 1
SMTWTFS
Bangalore City Junction/SBC 

10 halts. 75 intermediate Stations between Chennai Central and Bangalore City Junction

Hide intermediate Stations  Show Old Time-Table

#CodeStation NameX/OArrivesAvgDepartsAvgHaltPFDay#KmSpeedElevZoneAddress
1MAS»Chennai Central (12)»  -07:50-310.0659mSRChennai 600003, Tamil Nadu
1.1BBQBasin Bridge Junction (7)  07:52-07:52-  12.2 656mSRChennai, Tamil Nadu
1.2VJMVyasarpadi Jeeva (2)  07:54-07:54-  14.1 655mSRChennai, Tamil Nadu
1.3VPYVyasarpadiX  07:54-07:54-  14.2 655mSRChennai, Tamil Nadu
1.4PERPerambur (4)  07:55-07:55-  15.5 657mSRChennai-600011 Phone: 044-25510359, Tamil Nadu
1.5PCWPerambur Carriage Works (3)  07:56-07:56-  16.2 6510mSRChennai, Tamil Nadu
1.6PEWPerambur Locomotive Works (3)  07:57-07:57-  17.6 6510mSRChennai, Tamil Nadu
1.7VLKVillivakkam (4)  07:59-07:59-  19.3 6511mSRchennai central, Tamil Nadu
1.8KOTRKorattur (2)  08:01-08:01-  112.1 6516mSRKorattur, Tamil Nadu
1.9PVMPattaravakkam (2)  08:03-08:03-  114.1 6515mSRAmbattur, Tamil Nadu
1.10ABUAmbattur (3)  08:04-08:04-  115.5 6523mSRAmbatturavadi, Tamil Nadu
1.11TMVLTirumullaivayil (2)  08:06-08:06-  117.2 6521mSRAmbattur, Tamil Nadu
1.12ANNRAnnanur (2)  08:07-08:07-  118.3 6520mSRAmbattur, Tamil Nadu
1.13AVDAvadi (4)  08:09-08:09-  121.0 6528mSRPhone: 044-26555408, Tamil Nadu
1.14HCHindu College (2)  08:12-08:12-  124.0 6528mSRPattabiram, Tamil Nadu
1.15PABPattabiramX  08:13-08:13-  125.0 6531mSRPattabiram, Tamil Nadu
1.16PRWSPattabiram West  08:14-08:14-  126.5 6528mSRPattabiram, Tamil Nadu
1.17NECNemilicherry Halt (2)  08:15-08:15-  127.2 6531mSRNemilicherry, Tamil Nadu
1.18TITiruninravur (3)X  08:17-08:17-  129.0 6537mSRThirunindravur, Tamil Nadu
1.19VEUVeppampattu  08:20-08:20-  132.2 6539mSRChennai Tiruvallur High Rd, Tamil Nadu
1.20SVRSevvapet RoadX  08:23-08:23-  135.7 6538mSRSevvapet, Tamil Nadu
1.21PTLRPutlur HaltX  08:26-08:26-  138.9 6544mSRPutlur, Tamil Nadu
1.22TRLTiruvallur (6)X  08:28-08:28-  141.7 6550mSRTiruvallur, Tamil Nadu
1.23EGTEgattur HaltX  08:31-08:31-  144.9 6550mSREgattur, Tamil Nadu
1.24KBTKadambattur (2)X  08:33-08:33-  147.4 6550mSRKadambathur Bazaar Rd, Tamil Nadu
1.25SPAMSenji Panambakkam  08:36-08:36-  150.4 6554mSRKadambathur Rd, Tamil Nadu
1.26MAFManavur  08:39-08:39-  153.0 6558mSRTiruvalangadu Rd, Tamil Nadu
1.27TOTiruvalangaduXO  08:43-08:43-  158.2 6559mSRTiruvalangadu Rd, Tamil Nadu
1.28MSUMosur  08:46-08:46-  161.0 6561mSRArakkonam, Tamil Nadu
1.29PLMGPuliyamangalam  08:47-08:47-  162.5 6566mSRArakkonam, Tamil Nadu
2AJJArakkonam Junction (8)  08:53-08:55-2m--168.76491mSRArakkonam, Tamil Nadu
2.1MLPMMelpakkam  08:56-08:56-  169.7 6492mSRArakkonam, Tamil Nadu
2.2CTREChitteri  09:04-09:04-  177.8 64104mSRState Highway 61, Tamil Nadu
2.3AVNAnavardikhanpet (3)X  09:06-09:06-  180.3 64109mSRState Highway 126, Tamil Nadu
2.4MDVEMahendra Vadi  09:12-09:12-  186.5 64127mSRState Highway 128, Tamil Nadu
2.5SHUSholinghur  09:15-09:15-  190.3 64135mSRVellore, Tamil Nadu
2.6TUGThalangai  09:22-09:22-  197.7 64147mSRState Highway 61, Tamil Nadu
2.7MRLMMarudalamX  09:24-09:24-  199.6 64152mSRState Highway 61, Tamil Nadu
3WJRWalajah Road Junction (2)  09:29-09:30-1m21105.064178mSRAmmoor, Tamil Nadu
3.1MCNMukundarayapuram (2)X  09:37-09:37-  1112.9 64198mSRSipcot Ranipet, Tamil Nadu
3.2THLTiruvalam (2)  09:42-09:42-  1117.7 64195mSRState Highway 59, Tamil Nadu
3.3SVURSevurX  09:48-09:48-  1123.8 64203mSRSevoor, Tamil Nadu
4KPDKatpadi Junction (5)X  09:53-09:55-2m11129.492213mSRVellore 632007, Tamil Nadu
4.1LTILatteriX  10:00-10:00-  1137.4 92237mSRSH 59, Tamil Nadu
4.2VJVirinchipuram  10:03-10:03-  1141.9 92237mSRSH 59, Tamil Nadu
4.3KVNKavanur  10:07-10:07-  1148.0 92250mSRSH 59, Tamil Nadu
4.4GYMGudiyattam (3)O  10:11-10:11-  1153.9 92269mSRVellore, Tamil Nadu
4.5MEHMelalathurX  10:14-10:14-  1158.9 92275mSRSH 130, Tamil Nadu
4.6VLTValathoor  10:18-10:18-  1164.0 92284mSRSH 130, Tamil Nadu
4.7MPIMelpattiX  10:21-10:21-  1169.7 92290mSRSH 130, Tamil Nadu
4.8PCKMPachachakupam  10:25-10:25-  1175.7 92307mSRNH 46, Tamil Nadu
5ABAmburX  10:34 10:29-10:35 10:30-1m--1181.669330mSRAmbur, Tamil Nadu
5.1VGMVinnamangalamX  10:37-10:37-  1189.5 69340mSRNH 46, Tamil Nadu
6VNVaniyambadiX  10:49 10:44-10:50 10:45-1m31197.847357mSRVaniyambadi, Tamil Nadu
6.1KDYKettandapatti  10:56-10:56-  1206.2 47378mSRNH 46, Tamil Nadu
7JTJJolarpettai Junction (5)X  11:05-11:07-2m--1213.390405mSRJolarpettai, Tamil Nadu
7.1SKPTSomanayakkanpattiX  11:13-11:13-  1222.2 90420mSWRNational Highway 46, Tamil Nadu
7.2PUPatchur  11:18-11:18-  1230.4 90497mSWRVellore, Tamil Nadu
7.3MARMulanur (1)X  11:26-11:26-  1241.3 90625mSWRNational Highway 46, Andhra Pradesh
8KPNKuppam (2)X  11:34-11:35-1m--1253.673688mSWRKuppam, Andhra Pradesh
8.1GDPGudupalli  11:43-11:43-  1263.5 73746mSWRChittoor, Andhra Pradesh
8.2BSMBisanattam  11:47-11:47-  1268.8 73769mSWRKR Rd, Andhra Pradesh
8.3KSMKamasamudram  11:53-11:53-  1275.7 73789mSWRKolar Gold Fields, Karnataka
8.4VRDPVaradapur  11:59-11:59-  1283.1 73811mSWRUnnamed Rd, Karnataka
9BWTBangarapet Junction (6)X  12:05 12:03-12:07 12:05-2m31287.779815mSWRBangarapet, Karnataka
9.1MZVMaralahalliX  12:11-12:11-  1295.8 79870mSWRMalur-Bangarapet Rd, Karnataka
9.2TCLTyakal (2)  12:14-12:14-  1300.0 79864mSWRKolar, Karnataka
9.3BFWByatrayanhalliX  12:21-12:21-  1309.3 79878mSWRMalur, Karnataka
9.4MLOMalur (4)  12:26-12:26-  1314.7 79905mSWRKolar, Karnataka
9.5DKNDevangonthi (3)  12:35-12:35-  1326.9 79897mSWRSaukya Rd, Karnataka
9.6WFDWhitefield (4)  12:41-12:41-  1334.7 79875mSWR560067, Karnataka
9.7SGWFWhitefield Satellite  12:43-12:43-  1337.2 79885mSWRBangalore, Karnataka
10KJMKrishnarajapuram (4)X  12:55 12:48-12:57 12:50-2m21344.120909mSWRBengaluru-560016, Karnataka
10.1BYPLBaiyyappanahalli (2)  12:59-12:59-  1347.0 20913mSWRBengaluru-560038, Karnataka
10.2BNCEBangalore East (2)X  13:11-13:11-  1351.0 20915mSWRBangalore, Karnataka
11BNCBangalore Cantt. (4)  13:35 13:18-13:40 13:20-5 2m11353.47929mSWRBengaluru-560052, Karnataka
12SBC•Bangalore City Junction (10)•  14:00--11357.9-903mSWRBengaluru-560023, Karnataka
Scroll to Top
Scroll to Bottom